Time;durP1;ratioP1;P1;durP2;ratioP2;P2;SDS_P1;SDS_P2;PMS_P1;PMS_P2;Temp;Humidity;BMP_temperature;BMP_pressure;BME280_temperature;BME280_humidity;BME280_pressure;Samples;Min_cycle;Max_cycle;Signal;HPM_P1;HPM_P2
2022/01/15 00:02:20;;;;;;;2.10;0.60;;;;;;;15.61;27.62;98593.38;1771839;80;20907;-64
2022/01/15 00:04:46;;;;;;;1.82;0.88;;;;;;;15.61;27.59;98592.03;1755389;80;20955;-64
2022/01/15 00:07:12;;;;;;;4.10;0.88;;;;;;;15.63;27.62;98582.41;1770049;80;23357;-64
2022/01/15 00:09:42;;;;;;;1.62;1.00;;;;;;;15.67;27.59;98587.09;1767710;80;20879;-63
2022/01/15 00:12:10;;;;;;;1.67;1.00;;;;;;;15.65;27.56;98585.17;1771464;80;20944;-63
2022/01/15 00:14:42;;;;;;;2.37;1.12;;;;;;;15.69;27.49;98579.67;1757833;80;21021;-64
2022/01/15 00:17:07;;;;;;;1.30;0.62;;;;;;;15.74;27.53;98565.59;1766519;80;20931;-65
2022/01/15 00:19:44;;;;;;;3.30;0.85;;;;;;;15.85;27.34;98582.27;1766581;80;21155;-63
2022/01/15 00:22:17;;;;;;;2.87;1.17;;;;;;;15.82;27.32;98588.90;1777646;80;21413;-64
2022/01/15 00:24:44;;;;;;;4.15;0.50;;;;;;;15.81;27.24;98587.25;1765977;80;20966;-64
2022/01/15 00:27:10;;;;;;;5.28;0.80;;;;;;;15.88;27.26;98588.49;1770472;80;21397;-64
2022/01/15 00:29:37;;;;;;;2.60;0.90;;;;;;;15.83;27.25;98589.17;1770045;80;20899;-64
2022/01/15 00:32:06;;;;;;;1.90;0.60;;;;;;;15.81;27.13;98597.97;1772333;80;21144;-63
2022/01/15 00:34:34;;;;;;;2.65;0.90;;;;;;;15.68;27.38;98597.30;1769759;80;21501;-63
2022/01/15 00:37:01;;;;;;;1.85;0.93;;;;;;;15.73;27.50;98599.62;1767995;80;20880;-62
2022/01/15 00:39:27;;;;;;;1.92;1.10;;;;;;;15.74;27.51;98593.22;1768274;80;20942;-62
2022/01/15 00:41:54;;;;;;;1.82;0.78;;;;;;;15.75;27.45;98586.80;1768112;80;21048;-64
2022/01/15 00:44:20;;;;;;;1.67;0.80;;;;;;;15.66;27.48;98589.50;1766844;80;21163;-63
2022/01/15 00:46:47;;;;;;;1.70;0.60;;;;;;;15.66;27.57;98614.97;1769450;80;20923;-63
2022/01/15 00:49:15;;;;;;;2.12;0.80;;;;;;;15.75;27.57;98606.91;1762698;80;20932;-63
2022/01/15 00:51:42;;;;;;;3.17;1.25;;;;;;;15.73;27.60;98617.56;1764600;80;20954;-63
2022/01/15 00:54:09;;;;;;;1.62;0.98;;;;;;;15.77;27.55;98606.70;1771899;80;20966;-63
2022/01/15 00:56:35;;;;;;;2.60;1.10;;;;;;;15.83;27.51;98602.59;1761578;80;22059;-64
2022/01/15 00:59:02;;;;;;;2.55;0.82;;;;;;;15.88;27.54;98618.82;1778122;79;20935;-63
2022/01/15 01:01:29;;;;;;;1.55;1.25;;;;;;;15.97;27.46;98616.66;1792308;79;20938;-64
2022/01/15 01:03:55;;;;;;;2.10;0.80;;;;;;;15.90;27.48;98624.77;1793184;79;21094;-64
2022/01/15 01:06:22;;;;;;;1.98;0.55;;;;;;;15.83;27.59;98635.28;1790709;79;20916;-63
2022/01/15 01:08:49;;;;;;;2.55;1.20;;;;;;;15.85;27.59;98616.58;1775029;79;21145;-64
2022/01/15 01:11:23;;;;;;;2.52;1.12;;;;;;;15.81;27.65;98634.70;1795042;79;20888;-64
2022/01/15 01:24:14;;;;;;;2.70;0.70;;;;;;;15.83;27.65;98636.63;1794259;79;20920;-64
2022/01/15 01:26:50;;;;;;;1.82;0.82;;;;;;;15.77;27.71;98635.66;1790660;79;21446;-63
2022/01/15 01:34:19;;;;;;;1.52;0.70;;;;;;;15.58;27.78;98623.81;1777271;79;21103;-64
2022/01/15 01:39:18;;;;;;;3.17;1.10;;;;;;;15.55;27.80;98630.45;1773780;79;21057;-64
2022/01/15 01:41:48;;;;;;;2.98;1.35;;;;;;;15.48;27.92;98627.02;1780563;79;20935;-64
2022/01/15 01:44:16;;;;;;;3.52;1.17;;;;;;;15.46;27.99;98632.31;1789426;79;21013;-64
2022/01/15 01:46:46;;;;;;;2.10;0.80;;;;;;;15.44;28.06;98639.17;1774855;79;21155;-62
2022/01/15 01:49:12;;;;;;;1.42;0.80;;;;;;;15.40;28.08;98634.80;1780409;79;20973;-64
2022/01/15 01:51:39;;;;;;;1.50;0.85;;;;;;;15.32;28.18;98638.28;1793203;79;21520;-62
2022/01/15 01:54:08;;;;;;;3.27;1.67;;;;;;;15.36;28.21;98630.91;1776707;79;21046;-64
2022/01/15 01:56:36;;;;;;;1.57;0.70;;;;;;;15.40;28.25;98621.41;1794860;79;21038;-65
2022/01/15 01:59:03;;;;;;;3.95;0.65;;;;;;;15.46;28.23;98637.13;1789397;79;22075;-64
2022/01/15 02:01:30;;;;;;;2.42;1.12;;;;;;;15.53;28.14;98639.23;1804600;79;20973;-65
2022/01/15 02:03:58;;;;;;;2.75;0.78;;;;;;;15.52;28.21;98638.92;1807379;79;20923;-65
2022/01/15 02:06:25;;;;;;;2.72;0.98;;;;;;;15.49;28.23;98641.25;1805908;79;20923;-65
2022/01/15 02:08:54;;;;;;;1.82;0.75;;;;;;;15.50;28.22;98636.17;1794533;79;20966;-65
2022/01/15 02:11:20;;;;;;;1.60;0.68;;;;;;;15.56;28.20;98630.75;1811430;79;21449;-65
2022/01/15 02:13:47;;;;;;;1.62;0.70;;;;;;;15.61;28.10;98632.77;1800473;79;20966;-62
2022/01/15 02:16:15;;;;;;;1.30;0.62;;;;;;;15.57;28.18;98652.48;1740702;81;20997;-63
2022/01/15 02:18:41;;;;;;;2.85;0.95;;;;;;;15.57;28.22;98644.44;1738352;82;20987;-64
2022/01/15 02:23:45;;;;;;;2.52;0.80;;;;;;;15.58;28.14;98635.88;1796264;79;21143;-64
2022/01/15 02:26:19;;;;;;;2.05;0.78;;;;;;;15.54;28.22;98650.78;1792302;79;20915;-64
2022/01/15 02:28:47;;;;;;;2.50;0.95;;;;;;;15.48;28.23;98649.80;1802474;79;20962;-64
2022/01/15 02:31:15;;;;;;;1.92;0.70;;;;;;;15.35;28.30;98652.06;1795659;79;21010;-64
2022/01/15 02:33:45;;;;;;;1.12;0.65;;;;;;;15.32;28.38;98655.70;1798785;78;21006;-63
2022/01/15 02:36:14;;;;;;;1.95;0.60;;;;;;;15.35;28.44;98648.56;1804759;78;21125;-64
2022/01/15 02:38:41;;;;;;;1.32;0.78;;;;;;;15.38;28.47;98644.11;1807467;79;20891;-64
2022/01/15 02:41:08;;;;;;;2.50;0.93;;;;;;;15.47;28.38;98646.81;1784098;79;21398;-64
2022/01/15 02:43:35;;;;;;;2.85;1.05;;;;;;;15.40;28.44;98665.63;1806196;79;21052;-65
2022/01/15 02:48:53;;;;;;;2.05;0.93;;;;;;;15.36;28.45;98675.13;1797987;78;41192;-63
2022/01/15 02:51:23;;;;;;;1.80;0.80;;;;;;;15.41;28.44;98677.96;1801996;79;21385;-65
2022/01/15 02:53:54;;;;;;;2.05;0.93;;;;;;;15.44;28.44;98682.06;1796221;79;20999;-64
2022/01/15 02:56:18;;;;;;;1.25;0.60;;;;;;;15.52;28.38;98679.65;1807014;79;20958;-64
2022/01/15 02:58:44;;;;;;;4.35;0.90;;;;;;;15.53;28.40;98682.64;1800049;79;21150;-64
2022/01/15 03:01:11;;;;;;;1.42;0.75;;;;;;;15.60;28.35;98682.87;1799313;79;21153;-63
2022/01/15 03:03:37;;;;;;;3.75;1.10;;;;;;;15.65;28.32;98687.05;1797243;79;20986;-63
2022/01/15 03:06:14;;;;;;;2.35;0.75;;;;;;;15.59;28.38;98681.22;1783086;79;21491;-63
2022/01/15 03:08:42;;;;;;;3.77;1.05;;;;;;;15.58;28.42;98676.92;1803040;79;20982;-65
2022/01/15 03:11:10;;;;;;;2.55;0.98;;;;;;;15.55;28.47;98685.40;1805420;79;20891;-65
2022/01/15 03:13:37;;;;;;;2.52;1.02;;;;;;;15.52;28.55;98688.52;1794594;79;22296;-63
2022/01/15 03:16:06;;;;;;;1.80;0.70;;;;;;;15.57;28.53;98674.44;1793755;78;20985;-63
2022/01/15 03:18:33;;;;;;;1.62;0.60;;;;;;;15.57;28.56;98675.27;1772814;79;20937;-64
2022/01/15 03:20:59;;;;;;;2.08;0.98;;;;;;;15.56;28.63;98680.86;1797239;79;21180;-65
2022/01/15 03:23:26;;;;;;;2.00;0.90;;;;;;;15.61;28.62;98675.66;1799698;79;20935;-64
2022/01/15 03:25:53;;;;;;;3.08;0.95;;;;;;;15.49;28.76;98675.55;1806295;79;22031;-64
2022/01/15 03:28:19;;;;;;;1.98;0.60;;;;;;;15.41;28.87;98677.96;1799871;79;20855;-64
2022/01/15 03:30:46;;;;;;;2.35;0.90;;;;;;;15.44;28.82;98675.36;1804282;79;21527;-64
2022/01/15 03:33:12;;;;;;;3.22;1.05;;;;;;;15.43;28.80;98665.70;1801419;78;21090;-63
2022/01/15 03:35:39;;;;;;;2.72;1.05;;;;;;;15.43;28.79;98669.72;1768167;80;20852;-63
2022/01/15 03:38:06;;;;;;;2.20;0.90;;;;;;;15.34;28.88;98660.31;1737965;80;21694;-63
2022/01/15 03:40:33;;;;;;;4.35;0.98;;;;;;;15.24;29.02;98669.37;1733527;82;21517;-63
2022/01/15 03:42:59;;;;;;;2.90;0.90;;;;;;;15.17;29.08;98680.67;1804982;78;21008;-64
2022/01/15 03:45:26;;;;;;;4.22;1.72;;;;;;;15.13;29.15;98680.27;1789479;79;20943;-63
2022/01/15 03:47:52;;;;;;;2.92;1.02;;;;;;;15.09;29.19;98688.97;1795712;79;21105;-63
2022/01/15 03:50:19;;;;;;;2.72;0.80;;;;;;;15.10;29.24;98690.59;1791341;79;21112;-66
2022/01/15 03:52:45;;;;;;;2.72;0.93;;;;;;;15.11;29.25;98689.05;1803543;78;21578;-64
2022/01/15 03:55:13;;;;;;;1.35;0.80;;;;;;;15.17;29.22;98693.52;1786916;79;20894;-65
2022/01/15 03:57:40;;;;;;;3.62;1.32;;;;;;;15.16;29.22;98690.56;1791846;79;20998;-63
2022/01/15 04:00:17;;;;;;;3.05;1.20;;;;;;;15.13;29.23;98692.84;1806626;78;20994;-65
2022/01/15 04:02:46;;;;;;;3.02;1.17;;;;;;;15.12;29.26;98699.26;1812404;79;21136;-64
2022/01/15 04:05:12;;;;;;;4.12;1.62;;;;;;;15.11;29.27;98702.45;1801126;79;20879;-65
2022/01/15 04:07:39;;;;;;;1.45;1.10;;;;;;;15.12;29.32;98696.58;1801380;79;20942;-64
2022/01/15 04:10:07;;;;;;;3.37;1.20;;;;;;;15.01;29.45;98708.81;1779162;79;21556;-64
2022/01/15 04:12:34;;;;;;;3.87;1.05;;;;;;;15.17;29.30;98712.81;1796734;79;20946;-65
2022/01/15 04:15:02;;;;;;;2.92;1.00;;;;;;;15.20;29.25;98709.70;1791305;79;21194;-64
2022/01/15 04:17:29;;;;;;;4.45;1.10;;;;;;;15.20;29.28;98713.73;1793895;79;21540;-64
2022/01/15 04:19:56;;;;;;;3.55;1.10;;;;;;;15.09;29.40;98717.10;1795061;79;21460;-64
2022/01/15 04:22:22;;;;;;;2.25;0.95;;;;;;;15.11;29.48;98714.50;1795814;79;20891;-64
2022/01/15 04:24:49;;;;;;;4.05;1.30;;;;;;;15.12;29.49;98704.61;1794755;79;21473;-63
2022/01/15 04:27:16;;;;;;;2.87;1.20;;;;;;;15.15;29.47;98714.36;1792992;79;21692;-64
2022/01/15 04:29:42;;;;;;;3.65;1.77;;;;;;;15.19;29.44;98720.94;1785324;79;21457;-63
2022/01/15 04:32:09;;;;;;;4.58;1.57;;;;;;;15.22;29.39;98714.32;1802339;79;20883;-63
2022/01/15 04:34:35;;;;;;;2.25;0.90;;;;;;;15.22;29.42;98722.36;1802009;79;20895;-64
2022/01/15 04:37:09;;;;;;;3.37;1.20;;;;;;;15.27;29.35;98734.58;1791566;79;20954;-63
2022/01/15 04:39:30;;;;;;;1.90;1.10;;;;;;;15.36;29.25;98741.30;1793848;79;21154;-64
2022/01/15 04:41:57;;;;;;;2.98;1.25;;;;;;;15.38;29.33;98738.70;1798645;79;20939;-63
2022/01/15 04:44:23;;;;;;;1.62;1.17;;;;;;;15.48;29.18;98738.77;1798040;79;21006;-64
2022/01/15 04:46:51;;;;;;;3.45;1.20;;;;;;;15.56;29.13;98732.62;1802164;79;20935;-64
2022/01/15 04:49:18;;;;;;;3.00;1.55;;;;;;;15.63;29.03;98747.30;1798970;79;20827;-64
2022/01/15 04:51:45;;;;;;;2.20;0.82;;;;;;;15.64;28.97;98743.07;1803258;78;21121;-64
2022/01/15 04:54:11;;;;;;;3.27;1.27;;;;;;;15.73;28.90;98752.45;1798771;79;20978;-64
2022/01/15 04:56:38;;;;;;;2.52;1.35;;;;;;;15.89;28.79;98764.48;1805371;78;20915;-65
2022/01/15 04:59:04;;;;;;;3.55;0.80;;;;;;;15.90;28.70;98771.50;1811261;79;21535;-64
2022/01/15 05:01:31;;;;;;;3.10;1.10;;;;;;;15.95;28.66;98769.80;1790072;79;21044;-66
2022/01/15 05:03:58;;;;;;;2.70;1.12;;;;;;;16.05;28.55;98769.27;1787848;79;21129;-62
2022/01/15 05:06:24;;;;;;;3.30;1.15;;;;;;;16.00;28.58;98769.13;1785415;79;21532;-64
2022/01/15 05:09:01;;;;;;;4.55;0.80;;;;;;;16.08;28.52;98770.17;1730539;81;20904;-63
2022/01/15 05:11:43;;;;;;;2.50;1.10;;;;;;;16.19;28.40;98778.02;1756261;81;21013;-64
2022/01/15 05:13:58;;;;;;;5.42;0.90;;;;;;;16.19;28.30;98769.96;1749976;81;20990;-64
2022/01/15 05:16:25;;;;;;;4.45;0.95;;;;;;;16.13;28.32;98774.35;1750605;80;21904;-64
2022/01/15 05:18:51;;;;;;;3.37;1.00;;;;;;;16.02;28.46;98788.49;1755691;80;21418;-64
2022/01/15 05:21:18;;;;;;;1.80;0.88;;;;;;;16.05;28.44;98785.38;1731263;82;21015;-63
2022/01/15 05:23:44;;;;;;;1.87;0.82;;;;;;;15.94;28.58;98789.60;1731860;82;21043;-64
2022/01/15 05:26:12;;;;;;;2.40;0.98;;;;;;;15.97;28.56;98791.84;1732334;82;20897;-63
2022/01/15 05:28:38;;;;;;;2.90;1.12;;;;;;;15.93;28.63;98789.29;1752680;80;21538;-65
2022/01/15 05:31:05;;;;;;;3.33;1.40;;;;;;;16.01;28.51;98795.71;1735701;80;21492;-64
2022/01/15 05:33:33;;;;;;;2.85;0.90;;;;;;;15.97;28.49;98798.55;1789687;79;21061;-64
2022/01/15 05:36:01;;;;;;;2.20;1.10;;;;;;;15.90;28.62;98801.80;1781604;79;21026;-63
2022/01/15 05:38:27;;;;;;;3.42;1.32;;;;;;;15.73;28.82;98807.94;1793065;79;21548;-63
2022/01/15 05:40:54;;;;;;;3.08;1.10;;;;;;;15.71;28.86;98800.64;1784064;79;21142;-64
2022/01/15 05:43:20;;;;;;;3.17;1.40;;;;;;;15.74;28.83;98810.42;1795742;79;21010;-64
2022/01/15 05:45:46;;;;;;;3.15;1.25;;;;;;;15.81;28.74;98805.81;1788848;79;21031;-63
2022/01/15 05:48:13;;;;;;;1.90;1.12;;;;;;;15.80;28.73;98811.41;1782046;79;20900;-65
2022/01/15 05:50:40;;;;;;;2.27;1.12;;;;;;;15.94;28.60;98803.02;1791073;79;20907;-64
2022/01/15 05:53:06;;;;;;;3.55;1.17;;;;;;;15.82;28.70;98805.30;1794216;79;23328;-65
2022/01/15 05:55:32;;;;;;;3.02;1.35;;;;;;;15.84;28.73;98812.09;1779993;79;21060;-64
2022/01/15 05:57:59;;;;;;;2.17;1.07;;;;;;;15.85;28.73;98818.27;1786088;79;20942;-65
2022/01/15 06:00:25;;;;;;;2.17;0.78;;;;;;;15.78;28.80;98814.30;1784529;79;21010;-65
2022/01/15 06:02:53;;;;;;;1.60;0.93;;;;;;;15.77;28.82;98814.52;1782720;79;20872;-65
2022/01/15 06:05:20;;;;;;;2.77;1.15;;;;;;;15.75;28.77;98820.09;1780231;79;21073;-64
2022/01/15 06:07:46;;;;;;;2.83;1.40;;;;;;;15.69;28.87;98829.55;1781485;79;21476;-65
2022/01/15 06:10:12;;;;;;;3.00;1.37;;;;;;;15.77;28.78;98831.95;1782158;79;21447;-64
2022/01/15 06:12:44;;;;;;;3.50;1.20;;;;;;;15.76;28.75;98834.33;1786656;79;21152;-63
2022/01/15 06:15:12;;;;;;;3.35;1.32;;;;;;;15.79;28.75;98827.19;1774299;79;21042;-64
2022/01/15 06:17:39;;;;;;;2.83;1.22;;;;;;;15.78;28.75;98827.70;1784224;79;21137;-64
2022/01/15 06:20:08;;;;;;;3.45;1.17;;;;;;;15.67;28.84;98827.61;1781194;79;21085;-64
2022/01/15 06:22:34;;;;;;;2.15;1.22;;;;;;;15.64;28.94;98840.11;1775203;79;20946;-63
2022/01/15 06:25:03;;;;;;;1.95;1.27;;;;;;;15.69;28.83;98830.38;1782585;79;20943;-65
2022/01/15 06:27:31;;;;;;;4.45;1.50;;;;;;;15.73;28.81;98834.24;1786304;79;21398;-64
2022/01/15 06:29:57;;;;;;;3.92;1.40;;;;;;;15.83;28.73;98838.59;1780050;79;21188;-63
2022/01/15 06:32:26;;;;;;;4.03;1.12;;;;;;;15.83;28.72;98839.11;1776982;79;20954;-63
2022/01/15 06:34:52;;;;;;;1.87;1.25;;;;;;;15.87;28.63;98838.47;1772954;79;20994;-64
2022/01/15 06:37:19;;;;;;;2.95;1.22;;;;;;;15.95;28.52;98844.08;1775959;79;21500;-64
2022/01/15 06:39:47;;;;;;;4.72;1.25;;;;;;;16.02;28.39;98844.31;1777054;79;20973;-64
2022/01/15 06:42:13;;;;;;;2.17;1.25;;;;;;;16.12;28.30;98838.44;1782215;79;21768;-64
2022/01/15 06:44:39;;;;;;;2.65;1.50;;;;;;;16.02;28.32;98844.31;1784362;79;21489;-62
2022/01/15 06:47:06;;;;;;;3.72;1.70;;;;;;;16.04;28.30;98848.11;1772485;79;20927;-65
2022/01/15 06:49:33;;;;;;;1.57;1.20;;;;;;;16.08;28.31;98851.18;1785539;79;21536;-64
2022/01/15 06:52:00;;;;;;;3.72;1.30;;;;;;;16.00;28.24;98857.13;1782623;79;21097;-64
2022/01/15 06:54:26;;;;;;;3.70;1.20;;;;;;;16.03;28.23;98856.67;1778466;79;21122;-65
2022/01/15 06:56:53;;;;;;;4.75;1.80;;;;;;;16.11;28.18;98858.80;1781189;79;20939;-64
2022/01/15 06:59:19;;;;;;;3.55;1.15;;;;;;;16.16;28.11;98859.78;1786084;79;20887;-63
2022/01/15 07:01:46;;;;;;;2.72;1.27;;;;;;;16.20;28.05;98872.21;1788635;79;20982;-64
2022/01/15 07:04:13;;;;;;;4.37;1.40;;;;;;;16.17;28.11;98875.33;1780185;79;20904;-64
2022/01/15 07:06:40;;;;;;;2.62;1.30;;;;;;;16.22;28.08;98879.52;1785516;79;21155;-64
2022/01/15 07:09:06;;;;;;;3.22;1.32;;;;;;;16.17;28.11;98880.70;1789026;79;20911;-64
2022/01/15 07:11:33;;;;;;;4.03;1.50;;;;;;;16.12;28.16;98888.08;1777380;79;21418;-67
2022/01/15 07:13:59;;;;;;;2.80;1.70;;;;;;;16.23;28.07;98889.22;1784684;79;20986;-62
2022/01/15 07:16:26;;;;;;;3.92;1.60;;;;;;;16.16;28.04;98900.55;1804076;79;21026;-66
2022/01/15 07:18:52;;;;;;;2.65;1.12;;;;;;;16.01;28.25;98896.31;1783014;79;21122;-64
2022/01/15 07:21:18;;;;;;;3.25;1.40;;;;;;;16.03;28.20;98902.27;1797006;79;20982;-62
2022/01/15 07:23:45;;;;;;;2.90;1.45;;;;;;;16.03;28.23;98907.64;1788971;79;21015;-63
2022/01/15 07:26:12;;;;;;;2.90;1.25;;;;;;;16.28;27.95;98900.11;1788874;79;20995;-64
2022/01/15 07:28:38;;;;;;;2.37;1.30;;;;;;;16.08;28.14;98907.52;1784975;79;21050;-64
2022/01/15 07:31:05;;;;;;;3.50;1.50;;;;;;;16.13;28.17;98914.39;1782635;79;21145;-63
2022/01/15 07:33:32;;;;;;;2.05;1.27;;;;;;;16.04;28.28;98913.32;1804283;79;20907;-62
2022/01/15 07:35:59;;;;;;;4.20;1.45;;;;;;;16.12;28.30;98911.39;1788057;79;20931;-62
2022/01/15 07:38:25;;;;;;;3.40;1.52;;;;;;;16.23;28.13;98913.38;1795210;79;21019;-61
2022/01/15 07:40:56;;;;;;;1.65;0.90;;;;;;;16.22;28.09;98931.84;1786535;79;21048;-61
2022/01/15 07:43:21;;;;;;;4.25;1.50;;;;;;;15.86;28.56;98936.56;1788477;79;21123;-64
2022/01/15 07:45:47;;;;;;;3.72;1.67;;;;;;;15.86;28.63;98936.56;1780950;79;20982;-61
2022/01/15 07:48:14;;;;;;;3.83;1.35;;;;;;;16.01;28.51;98947.29;1803194;79;21034;-65
2022/01/15 07:50:41;;;;;;;2.67;1.35;;;;;;;16.06;28.48;98939.41;1797736;79;21050;-63
2022/01/15 07:53:08;;;;;;;4.40;1.98;;;;;;;15.96;28.53;98931.54;1789634;79;21550;-65
2022/01/15 07:55:36;;;;;;;3.87;1.42;;;;;;;15.86;28.62;98939.25;1776044;79;20863;-65
2022/01/15 07:58:04;;;;;;;2.95;1.50;;;;;;;15.87;28.61;98946.27;1783424;79;21040;-61
2022/01/15 08:00:31;;;;;;;2.30;1.35;;;;;;;15.97;28.54;98935.36;1784438;79;20896;-65
2022/01/15 08:02:57;;;;;;;3.58;2.10;;;;;;;16.06;28.49;98946.63;1792349;79;21642;-63
2022/01/15 08:05:24;;;;;;;3.92;2.33;;;;;;;16.11;28.47;98945.48;1796512;79;21047;-65
2022/01/15 08:07:51;;;;;;;2.85;1.47;;;;;;;16.17;28.42;98947.78;1793348;79;21137;-65
2022/01/15 08:10:19;;;;;;;5.25;1.30;;;;;;;16.25;28.37;98953.71;1785635;79;21443;-65
2022/01/15 08:12:51;;;;;;;2.42;1.40;;;;;;;16.34;28.29;98951.58;1793823;79;20995;-63
2022/01/15 08:15:20;;;;;;;4.35;1.67;;;;;;;16.42;28.17;98958.84;1788751;79;21714;-62
2022/01/15 08:17:47;;;;;;;5.53;1.70;;;;;;;16.42;28.15;98948.63;1790257;79;21038;-63
2022/01/15 08:20:14;;;;;;;3.10;1.30;;;;;;;16.45;28.17;98950.33;1790315;79;21205;-63
2022/01/15 08:22:42;;;;;;;3.33;1.32;;;;;;;16.48;28.13;98953.09;1795014;79;20939;-63
2022/01/15 08:25:11;;;;;;;3.98;1.80;;;;;;;16.38;28.17;98961.66;1790046;79;21127;-64
2022/01/15 08:27:38;;;;;;;3.47;1.60;;;;;;;16.42;28.14;98966.07;1782967;79;20966;-62
2022/01/15 08:30:07;;;;;;;2.80;1.52;;;;;;;16.46;28.06;98952.50;1795926;79;20995;-63
2022/01/15 08:32:34;;;;;;;3.72;1.42;;;;;;;16.35;28.07;98955.38;1792863;79;21257;-67
2022/01/15 08:35:02;;;;;;;3.52;1.90;;;;;;;16.31;28.12;98970.80;1796331;79;20926;-64
2022/01/15 08:37:28;;;;;;;2.77;1.40;;;;;;;16.36;28.08;98965.59;1792607;79;20884;-66
2022/01/15 08:39:55;;;;;;;3.92;1.30;;;;;;;16.27;28.21;98968.27;1790854;79;21545;-67
2022/01/15 08:42:21;;;;;;;4.30;1.52;;;;;;;15.96;28.43;98960.53;1783300;79;20920;-66
2022/01/15 08:44:48;;;;;;;2.70;1.32;;;;;;;15.69;28.87;98971.14;1779768;79;21134;-65
2022/01/15 08:47:15;;;;;;;2.55;1.27;;;;;;;15.67;28.99;98972.39;1784088;79;20986;-64
2022/01/15 08:49:42;;;;;;;5.15;1.67;;;;;;;15.64;29.06;98978.19;1790223;79;20999;-72
2022/01/15 08:52:08;;;;;;;3.62;1.65;;;;;;;15.65;29.02;98979.30;1784858;79;20987;-64
2022/01/15 08:54:35;;;;;;;3.12;1.45;;;;;;;15.59;29.12;98988.73;1789711;79;21478;-62
2022/01/15 08:57:02;;;;;;;4.03;1.67;;;;;;;15.51;29.25;98983.10;1785769;79;20939;-61
2022/01/15 08:59:29;;;;;;;6.15;1.80;;;;;;;15.65;29.10;98994.55;1783915;79;20978;-62
2022/01/15 09:01:56;;;;;;;2.22;1.55;;;;;;;15.55;29.13;98996.36;1791540;79;21030;-62
2022/01/15 09:04:24;;;;;;;4.90;1.62;;;;;;;15.48;29.32;98996.92;1810956;79;20895;-64
2022/01/15 09:06:50;;;;;;;3.20;1.70;;;;;;;15.53;29.36;98985.55;1799676;79;21151;-62
2022/01/15 09:09:17;;;;;;;3.02;1.52;;;;;;;15.48;29.35;98991.56;1799780;78;21060;-63
2022/01/15 09:11:45;;;;;;;3.25;1.62;;;;;;;15.59;29.27;98986.05;1794678;78;21593;-61
2022/01/15 09:14:12;;;;;;;2.17;1.40;;;;;;;15.61;29.11;98989.33;1809547;79;21555;-65
2022/01/15 09:16:39;;;;;;;3.40;1.57;;;;;;;15.57;29.18;99002.33;1800498;78;20967;-62
2022/01/15 09:19:06;;;;;;;3.83;1.35;;;;;;;15.64;29.18;98993.76;1803099;78;21014;-63
2022/01/15 09:21:33;;;;;;;3.12;1.70;;;;;;;15.69;29.01;99001.15;1791070;79;21142;-63
2022/01/15 09:24:00;;;;;;;2.70;1.35;;;;;;;15.65;29.08;99008.79;1803724;79;20981;-66
2022/01/15 09:31:57;;;;;;;5.05;1.65;;;;;;;15.69;29.12;99004.66;1808906;79;21453;-69
2022/01/15 09:34:26;;;;;;;3.00;1.52;;;;;;;15.74;29.03;99000.81;1791368;79;22142;-67
2022/01/15 09:36:53;;;;;;;5.10;1.60;;;;;;;15.77;29.00;99011.63;1790957;79;21422;-66
2022/01/15 09:39:20;;;;;;;5.72;1.45;;;;;;;15.77;28.97;99011.09;1801962;79;20894;-66
2022/01/15 09:41:48;;;;;;;4.45;1.67;;;;;;;15.82;28.91;99013.98;1806573;79;20923;-65
2022/01/15 09:44:15;;;;;;;4.55;1.62;;;;;;;15.84;28.87;99029.33;1792218;79;20962;-68
2022/01/15 09:46:42;;;;;;;3.33;1.35;;;;;;;15.95;28.71;99024.63;1787152;79;21056;-64
2022/01/15 09:49:10;;;;;;;3.52;1.50;;;;;;;16.05;28.54;99026.32;1803883;79;20997;-67
2022/01/15 09:51:37;;;;;;;3.33;1.40;;;;;;;16.08;28.55;99025.86;1803857;79;20927;-68
2022/01/15 09:54:03;;;;;;;4.65;2.10;;;;;;;16.07;28.54;99028.77;1799839;78;21582;-66
2022/01/15 09:56:30;;;;;;;2.05;1.22;;;;;;;15.95;28.60;99021.95;1792601;78;20851;-66
2022/01/15 09:58:58;;;;;;;3.12;1.42;;;;;;;15.88;28.77;99015.78;1807648;79;21073;-63
2022/01/15 10:01:31;;;;;;;2.80;1.20;;;;;;;15.88;28.77;99022.48;1793008;79;21017;-67
2022/01/15 10:03:58;;;;;;;6.40;2.80;;;;;;;15.98;28.69;99027.41;1790796;79;20971;-68
2022/01/15 10:06:24;;;;;;;4.00;1.60;;;;;;;15.97;28.69;99032.45;1785403;79;20974;-67
2022/01/15 10:09:06;;;;;;;3.50;1.60;;;;;;;15.87;28.83;99028.08;1790745;79;20876;-68
2022/01/15 10:11:45;;;;;;;4.28;1.52;;;;;;;15.92;28.77;99030.94;1786636;79;21140;-62
2022/01/15 10:14:31;;;;;;;4.30;1.52;;;;;;;15.85;28.70;99024.25;1794113;79;21489;-69
2022/01/15 10:17:00;;;;;;;2.72;1.30;;;;;;;15.85;28.66;99020.23;1782487;79;20931;-66
2022/01/15 10:19:33;;;;;;;3.22;2.00;;;;;;;15.85;28.78;99022.91;1787586;79;21077;-67
2022/01/15 10:22:14;;;;;;;4.50;1.80;;;;;;;16.02;28.63;99036.65;1791583;79;21511;-64
2022/01/15 10:24:43;;;;;;;2.72;1.50;;;;;;;16.15;28.51;99039.77;1781664;79;21139;-67
2022/01/15 10:27:34;;;;;;;3.12;1.62;;;;;;;16.12;28.28;99027.61;1716140;82;20866;-63
2022/01/15 10:30:18;;;;;;;3.45;1.85;;;;;;;16.19;28.26;99040.99;1749563;81;21477;-66
2022/01/15 10:32:59;;;;;;;4.00;1.85;;;;;;;16.22;28.26;99045.90;1753165;81;21055;-68
2022/01/15 10:35:29;;;;;;;2.12;1.30;;;;;;;16.26;28.23;99044.45;1744288;80;20948;-66
2022/01/15 10:38:10;;;;;;;4.28;1.40;;;;;;;16.08;28.22;99045.98;1753680;81;21813;-67
2022/01/15 10:40:47;;;;;;;1.57;1.10;;;;;;;15.96;28.34;99043.70;1763153;80;20976;-66
2022/01/15 10:43:17;;;;;;;3.15;1.45;;;;;;;16.01;28.35;99040.36;1750152;81;21534;-69
2022/01/15 10:45:50;;;;;;;4.83;1.90;;;;;;;16.05;28.30;99041.59;1756134;80;20996;-71
2022/01/15 10:48:27;;;;;;;4.15;1.42;;;;;;;16.10;28.31;99051.16;1752494;81;21512;-64
2022/01/15 10:51:03;;;;;;;3.00;1.30;;;;;;;16.25;28.07;99045.47;1755498;81;21852;-68
2022/01/15 10:53:39;;;;;;;3.40;1.45;;;;;;;16.11;28.23;99051.98;1737144;82;20849;-66
2022/01/15 10:56:08;;;;;;;5.30;1.77;;;;;;;15.97;28.43;99054.74;1751284;81;20967;-65
2022/01/15 10:58:37;;;;;;;2.47;1.27;;;;;;;16.04;28.30;99056.86;1760354;81;21443;-72
2022/01/15 11:01:05;;;;;;;2.85;1.30;;;;;;;16.08;28.29;99062.08;1725320;82;20992;-71
2022/01/15 11:03:43;;;;;;;3.70;1.45;;;;;;;16.06;28.31;99060.14;1730020;81;21152;-66
2022/01/15 11:06:12;;;;;;;4.87;2.05;;;;;;;16.05;28.39;99057.17;1737529;81;23765;-60
2022/01/15 11:08:42;;;;;;;6.95;4.20;;;;;;;16.03;28.51;99051.17;1732090;81;21011;-67
2022/01/15 11:11:16;;;;;;;4.33;2.75;;;;;;;16.18;29.01;99060.80;1738670;82;20864;-66
2022/01/15 11:13:46;;;;;;;3.42;2.08;;;;;;;16.40;28.72;99052.72;1735863;81;21406;-63
2022/01/15 11:16:15;;;;;;;3.35;1.85;;;;;;;16.38;28.50;99056.95;1742955;81;21166;-66
2022/01/15 11:18:44;;;;;;;5.92;1.77;;;;;;;16.41;28.33;99059.72;1730023;82;20952;-63
2022/01/15 11:21:13;;;;;;;2.52;1.45;;;;;;;16.40;28.34;99060.78;1751398;81;21540;-65
2022/01/15 11:23:41;;;;;;;3.00;1.60;;;;;;;16.49;28.17;99058.94;1763578;81;21462;-64
2022/01/15 11:26:15;;;;;;;2.02;1.32;;;;;;;16.68;27.89;99056.34;1751777;81;21501;-66
2022/01/15 11:28:43;;;;;;;3.42;1.50;;;;;;;16.53;27.90;99061.51;1765519;81;21180;-68
2022/01/15 11:31:26;;;;;;;4.20;1.75;;;;;;;16.29;28.01;99067.66;1753958;80;20887;-64
2022/01/15 11:33:55;;;;;;;4.37;2.05;;;;;;;16.08;28.32;99069.84;1746723;81;20900;-64
2022/01/15 11:36:41;;;;;;;5.30;2.47;;;;;;;16.22;28.24;99082.96;1750428;81;21468;-65
2022/01/15 11:39:15;;;;;;;4.85;2.00;;;;;;;16.24;28.19;99076.05;1763449;81;21567;-66
2022/01/15 11:41:43;;;;;;;3.17;1.87;;;;;;;16.20;28.23;99070.28;1741977;80;21868;-67
2022/01/15 11:44:21;;;;;;;3.22;1.77;;;;;;;16.38;27.85;99068.20;1763691;81;20888;-65
2022/01/15 11:46:54;;;;;;;3.77;1.90;;;;;;;16.40;27.79;99072.86;1750949;81;20935;-66
2022/01/15 11:49:38;;;;;;;3.45;1.82;;;;;;;16.47;27.67;99069.59;1751884;81;21681;-66
2022/01/15 11:52:14;;;;;;;2.52;1.55;;;;;;;16.45;27.69;99083.77;1758079;81;20974;-66
2022/01/15 11:54:51;;;;;;;2.85;1.60;;;;;;;16.31;27.72;99069.60;1767588;81;21170;-63
2022/01/15 11:57:27;;;;;;;4.00;2.22;;;;;;;15.97;28.09;99082.91;1718305;82;21473;-62
2022/01/15 11:59:57;;;;;;;3.50;2.20;;;;;;;15.91;28.18;99074.88;1743561;81;21456;-66
2022/01/15 12:02:32;;;;;;;6.30;3.50;;;;;;;15.91;28.18;99074.88;1760728;80;21580;-63
2022/01/15 12:05:27;;;;;;;11.25;7.40;;;;;;;16.12;28.56;99083.12;1775279;80;21045;-65
2022/01/15 12:08:08;;;;;;;3.95;3.08;;;;;;;16.34;28.26;99079.08;1776900;80;21158;-65
2022/01/15 12:10:51;;;;;;;5.22;3.05;;;;;;;16.48;27.91;99072.05;1784289;80;20938;-67